createdAt,value
2019-05-25T00:02:48.317Z,13.14
2019-05-25T00:05:38.705Z,13.14
2019-05-25T00:08:28.290Z,13.12
2019-05-25T00:11:17.915Z,13.07
2019-05-25T00:14:29.518Z,13.08
2019-05-25T00:17:19.715Z,13.00
2019-05-25T00:20:09.862Z,12.93
2019-05-25T00:22:59.409Z,12.89
2019-05-25T00:25:48.920Z,12.86
2019-05-25T00:28:38.501Z,12.83
2019-05-25T00:31:30.505Z,12.82
2019-05-25T00:34:01.217Z,12.83
2019-05-25T00:36:51.133Z,12.80
2019-05-25T00:42:40.065Z,12.86
2019-05-25T00:45:12.923Z,12.86
2019-05-25T00:48:04.023Z,12.82
2019-05-25T00:50:53.635Z,12.81
2019-05-25T00:53:35.206Z,12.79
2019-05-25T00:58:59.824Z,12.71
2019-05-25T01:04:25.373Z,12.63
2019-05-25T01:07:01.798Z,12.65
2019-05-25T01:09:55.567Z,12.57
2019-05-25T01:12:51.167Z,12.52
2019-05-25T01:15:38.141Z,12.48
2019-05-25T01:18:28.246Z,12.45
2019-05-25T01:21:26.937Z,12.46
2019-05-25T01:32:34.499Z,12.51
2019-05-25T01:35:16.219Z,12.51
2019-05-25T01:38:06.081Z,12.49
2019-05-25T01:40:55.584Z,12.46
2019-05-25T01:43:46.869Z,12.41
2019-05-25T01:46:17.542Z,12.39
2019-05-25T01:48:48.228Z,12.37
2019-05-25T01:51:37.689Z,12.35
2019-05-25T01:54:27.230Z,12.35
2019-05-25T01:56:57.795Z,12.31
2019-05-25T01:59:28.541Z,12.29
2019-05-25T02:02:11.022Z,12.30
2019-05-25T02:04:52.431Z,12.29
2019-05-25T02:07:34.766Z,12.30
2019-05-25T02:10:17.202Z,12.32
2019-05-25T02:12:47.995Z,12.33
2019-05-25T02:15:37.630Z,12.33
2019-05-25T02:18:27.233Z,12.35
2019-05-25T02:21:16.994Z,12.32
2019-05-25T02:23:47.724Z,12.33
2019-05-25T02:26:37.302Z,12.24
2019-05-25T02:29:26.695Z,12.24
2019-05-25T02:31:57.669Z,12.18
2019-05-25T02:34:47.293Z,12.14
2019-05-25T02:37:37.709Z,12.18
2019-05-25T02:40:27.465Z,12.14
2019-05-25T02:43:18.132Z,12.13
2019-05-25T02:46:08.253Z,12.16
2019-05-25T02:48:57.926Z,12.13
2019-05-25T02:51:47.916Z,12.13
2019-05-25T02:54:38.020Z,12.11
2019-05-25T02:57:28.074Z,12.11
2019-05-25T03:00:18.011Z,12.16
2019-05-25T03:03:08.798Z,12.14
2019-05-25T03:05:58.925Z,12.11
2019-05-25T03:08:49.629Z,12.12
2019-05-25T03:11:59.866Z,12.11
2019-05-25T03:14:49.579Z,12.11
2019-05-25T03:17:41.572Z,12.05
2019-05-25T03:20:31.271Z,12.01
2019-05-25T03:23:02.062Z,11.98
2019-05-25T03:25:49.620Z,11.95
2019-05-25T03:28:16.734Z,11.89
2019-05-25T03:30:47.600Z,11.88
2019-05-25T03:33:37.176Z,11.88
2019-05-25T03:36:27.206Z,11.88
2019-05-25T03:39:17.098Z,11.89
2019-05-25T03:42:07.461Z,11.87
2019-05-25T03:44:57.420Z,11.84
2019-05-25T03:47:47.231Z,11.83
2019-05-25T03:50:37.341Z,11.83
2019-05-25T03:53:27.308Z,11.82
2019-05-25T03:56:16.928Z,11.78
2019-05-25T03:59:06.955Z,11.77
2019-05-25T04:01:56.557Z,11.74
2019-05-25T04:04:46.577Z,11.75
2019-05-25T04:07:36.523Z,11.82
2019-05-25T04:10:26.238Z,11.82
2019-05-25T04:13:15.872Z,11.82
2019-05-25T04:19:14.477Z,11.77
2019-05-25T04:22:04.447Z,11.77
2019-05-25T04:24:55.379Z,11.79
2019-05-25T04:27:44.990Z,11.84
2019-05-25T04:30:34.911Z,11.88
2019-05-25T04:33:24.529Z,11.90
2019-05-25T04:36:14.518Z,11.94
2019-05-25T04:39:24.259Z,11.99
2019-05-25T04:41:55.041Z,11.51
2019-05-25T04:44:45.897Z,12.02
2019-05-25T04:47:35.858Z,12.06
2019-05-25T04:50:16.460Z,12.11
2019-05-25T04:53:06.083Z,12.21
2019-05-25T04:55:55.906Z,12.34
2019-05-25T04:58:45.849Z,12.48
2019-05-25T05:01:35.452Z,12.56
2019-05-25T05:04:25.124Z,12.69
2019-05-25T05:07:14.720Z,12.83
2019-05-25T05:10:04.605Z,12.89
2019-05-25T05:12:54.201Z,12.94
2019-05-25T05:15:44.276Z,13.04
2019-05-25T05:18:33.946Z,13.14
2019-05-25T05:21:23.936Z,13.17
2019-05-25T05:24:13.574Z,13.23
2019-05-25T05:26:55.375Z,13.24
2019-05-25T05:29:35.890Z,13.25
2019-05-25T05:32:27.908Z,13.27
2019-05-25T05:35:17.181Z,13.31
2019-05-25T05:37:49.214Z,13.35
2019-05-25T05:40:57.963Z,13.38
2019-05-25T05:43:48.407Z,13.43
2019-05-25T05:46:43.063Z,13.46
2019-05-25T05:49:14.445Z,13.50
2019-05-25T05:52:08.746Z,13.53
2019-05-25T05:55:00.150Z,13.56
2019-05-25T05:57:49.645Z,13.61
2019-05-25T06:00:45.760Z,13.69
2019-05-25T06:03:16.819Z,13.69
2019-05-25T06:06:09.314Z,13.65
2019-05-25T06:08:42.053Z,13.65
2019-05-25T06:11:12.931Z,13.71
2019-05-25T06:14:03.663Z,13.81
2019-05-25T06:19:39.745Z,14.04
2019-05-25T06:22:10.655Z,14.23
2019-05-25T06:25:06.101Z,14.37
2019-05-25T06:27:37.091Z,14.50
2019-05-25T06:30:10.962Z,14.69
2019-05-25T06:32:43.290Z,14.85
2019-05-25T06:35:32.984Z,15.00
2019-05-25T06:38:03.804Z,15.17
2019-05-25T06:40:53.557Z,15.38
2019-05-25T06:43:24.619Z,15.56
2019-05-25T06:45:55.315Z,15.75
2019-05-25T06:48:26.578Z,15.89
2019-05-25T06:51:25.872Z,16.03
2019-05-25T06:54:08.516Z,16.18
2019-05-25T06:56:39.581Z,16.33
2019-05-25T06:59:10.471Z,16.43
2019-05-25T07:01:44.100Z,16.57
2019-05-25T07:04:34.465Z,16.71
2019-05-25T07:07:45.603Z,16.84
2019-05-25T07:10:38.451Z,16.98
2019-05-25T07:13:15.107Z,17.22
2019-05-25T07:16:06.224Z,17.33
2019-05-25T07:18:37.565Z,17.49
2019-05-25T07:21:08.806Z,17.51
2019-05-25T07:23:39.815Z,17.63
2019-05-25T07:26:29.752Z,17.75
2019-05-25T07:29:01.610Z,17.87
2019-05-25T07:31:53.737Z,18.02
2019-05-25T07:34:45.967Z,18.02
2019-05-25T07:37:38.673Z,18.19
2019-05-25T07:40:10.494Z,18.41
2019-05-25T07:43:00.208Z,18.60
2019-05-25T07:45:31.428Z,18.75
2019-05-25T07:51:10.835Z,19.07
2019-05-25T07:54:19.455Z,19.32
2019-05-25T07:56:50.411Z,19.54
2019-05-25T07:59:40.047Z,20.01
2019-05-25T08:02:10.924Z,20.02
2019-05-25T08:07:51.941Z,20.36
2019-05-25T08:10:22.864Z,20.01
2019-05-25T08:12:53.721Z,20.56
2019-05-25T08:15:43.655Z,20.85
2019-05-25T08:18:14.758Z,21.08
2019-05-25T08:20:47.447Z,21.26
2019-05-25T08:23:37.324Z,21.51
2019-05-25T08:26:27.173Z,21.07
2019-05-25T08:28:58.365Z,21.86
2019-05-25T08:31:34.113Z,21.81
2019-05-25T08:34:04.961Z,21.82
2019-05-25T08:36:35.788Z,22.60
2019-05-25T08:39:09.069Z,23.30
2019-05-25T08:41:39.792Z,23.92
2019-05-25T08:44:21.082Z,24.56
2019-05-25T08:46:55.635Z,24.81
2019-05-25T08:52:47.842Z,25.43
2019-05-25T08:55:20.733Z,26.07
2019-05-25T08:58:10.293Z,26.14
2019-05-25T09:00:41.063Z,26.45
2019-05-25T09:03:12.186Z,27.16
2019-05-25T09:05:43.025Z,27.34
2019-05-25T09:08:32.687Z,27.53
2019-05-25T09:11:03.359Z,27.93
2019-05-25T09:13:34.868Z,28.45
2019-05-25T09:16:28.251Z,28.47
2019-05-25T09:25:26.153Z,28.78
2019-05-25T09:27:59.226Z,27.24
2019-05-25T09:30:51.684Z,26.28
2019-05-25T09:33:27.225Z,26.82
2019-05-25T09:36:19.676Z,27.92
2019-05-25T09:41:56.273Z,28.94
2019-05-25T09:44:38.689Z,29.03
2019-05-25T09:47:11.625Z,27.59
2019-05-25T09:50:02.926Z,25.11
2019-05-25T09:52:53.187Z,24.50
2019-05-25T09:58:59.935Z,23.91
2019-05-25T10:05:20.521Z,22.31
2019-05-25T10:08:24.283Z,22.00
2019-05-25T10:10:54.058Z,21.55
2019-05-25T10:13:53.915Z,21.00
2019-05-25T10:23:25.627Z,20.33
2019-05-25T10:26:54.530Z,20.04
2019-05-25T10:29:53.336Z,19.97
2019-05-25T10:35:44.578Z,19.67
2019-05-25T10:38:20.857Z,19.50
2019-05-25T10:44:18.674Z,19.31
2019-05-25T10:49:43.148Z,18.60
2019-05-25T10:52:54.811Z,18.97
2019-05-25T10:55:50.622Z,18.90
2019-05-25T10:59:00.991Z,18.78
2019-05-25T11:01:55.113Z,18.57
2019-05-25T11:07:42.550Z,18.14
2019-05-25T11:10:33.655Z,18.13
2019-05-25T11:13:05.558Z,18.01
2019-05-25T11:15:36.955Z,17.88
2019-05-25T11:18:09.983Z,17.81
2019-05-25T11:20:40.903Z,17.92
2019-05-25T11:23:31.275Z,17.82
2019-05-25T11:26:21.048Z,17.43
2019-05-25T11:28:51.803Z,17.60
2019-05-25T11:31:22.493Z,17.86
2019-05-25T11:34:03.850Z,18.14
2019-05-25T11:36:45.294Z,18.33
2019-05-25T11:39:26.788Z,18.27
2019-05-25T11:41:57.724Z,18.86
2019-05-25T11:44:28.539Z,19.26
2019-05-25T11:46:59.340Z,19.31
2019-05-25T11:49:33.202Z,19.64
2019-05-25T11:52:05.033Z,20.03
2019-05-25T11:54:36.259Z,20.41
2019-05-25T11:57:07.150Z,21.01
2019-05-25T11:59:57.083Z,21.51
2019-05-25T12:02:27.797Z,21.62
2019-05-25T12:04:58.711Z,21.79
2019-05-25T12:07:44.491Z,21.79
2019-05-25T12:10:34.211Z,21.85
2019-05-25T12:13:42.600Z,21.66
2019-05-25T12:16:16.362Z,21.85
2019-05-25T12:19:06.095Z,22.21
2019-05-25T12:21:47.066Z,22.29
2019-05-25T12:24:36.671Z,22.55
2019-05-25T12:27:10.195Z,22.54
2019-05-25T12:30:00.567Z,23.03
2019-05-25T12:32:31.503Z,23.36
2019-05-25T12:35:02.487Z,23.66
2019-05-25T12:37:34.659Z,24.46
2019-05-25T12:40:06.116Z,25.31
2019-05-25T12:42:37.046Z,25.17
2019-05-25T12:45:28.449Z,25.08
2019-05-25T12:48:19.038Z,25.88
2019-05-25T12:51:10.139Z,26.24
2019-05-25T12:53:59.890Z,26.99
2019-05-25T12:56:30.747Z,26.79
2019-05-25T12:59:20.740Z,26.01
2019-05-25T13:02:12.431Z,25.74
2019-05-25T13:04:45.356Z,26.17
2019-05-25T13:07:16.277Z,27.66
2019-05-25T13:10:06.265Z,28.48
2019-05-25T13:12:57.821Z,27.25
2019-05-25T13:15:47.503Z,26.19
2019-05-25T13:18:39.589Z,25.39
2019-05-25T13:21:51.341Z,24.72
2019-05-25T13:24:22.965Z,24.20
2019-05-25T13:26:53.888Z,23.82
2019-05-25T13:29:43.904Z,23.79
2019-05-25T13:32:16.185Z,23.47
2019-05-25T13:34:47.093Z,23.37
2019-05-25T13:37:18.494Z,23.12
2019-05-25T13:40:09.622Z,23.49
2019-05-25T13:43:05.831Z,23.92
2019-05-25T13:48:50.239Z,23.27
2019-05-25T13:54:29.939Z,22.02
2019-05-25T13:57:08.139Z,21.64
2019-05-25T13:59:58.080Z,21.18
2019-05-25T14:02:28.960Z,20.98
2019-05-25T14:05:18.731Z,20.84
2019-05-25T14:07:51.033Z,20.61
2019-05-25T14:10:22.270Z,20.49
2019-05-25T14:13:12.064Z,20.35
2019-05-25T14:15:45.088Z,19.95
2019-05-25T14:18:34.651Z,19.23
2019-05-25T14:21:24.540Z,18.76
2019-05-25T14:23:55.652Z,18.60
2019-05-25T14:26:50.781Z,17.84
2019-05-25T14:32:18.847Z,15.66
2019-05-25T14:34:50.862Z,14.93
2019-05-25T14:40:28.029Z,14.32
2019-05-25T14:42:59.738Z,13.96
2019-05-25T14:45:53.237Z,13.81
2019-05-25T14:48:27.131Z,13.69
2019-05-25T14:51:17.462Z,13.53
2019-05-25T14:53:48.968Z,13.45
2019-05-25T14:56:22.263Z,13.32
2019-05-25T14:59:15.323Z,13.26
2019-05-25T15:02:01.468Z,13.17
2019-05-25T15:04:38.219Z,13.13
2019-05-25T15:07:09.147Z,13.09
2019-05-25T15:09:55.650Z,13.07
2019-05-25T15:12:27.131Z,13.04
2019-05-25T15:14:58.173Z,13.06
2019-05-25T15:17:50.415Z,13.06
2019-05-25T15:20:21.338Z,13.04
2019-05-25T15:22:54.418Z,13.01
2019-05-25T15:25:25.617Z,13.05
2019-05-25T15:27:56.600Z,13.02
2019-05-25T15:31:07.857Z,13.03
2019-05-25T15:36:20.423Z,13.05
2019-05-25T15:38:51.964Z,13.03
2019-05-25T15:41:44.811Z,13.13
2019-05-25T15:44:34.793Z,13.19
2019-05-25T15:47:25.838Z,13.27
2019-05-25T15:50:04.412Z,13.35
2019-05-25T15:52:56.812Z,13.36
2019-05-25T15:55:46.827Z,13.29
2019-05-25T15:58:56.603Z,13.47
2019-05-25T16:05:14.603Z,12.47
2019-05-25T16:08:27.671Z,13.11
2019-05-25T16:16:59.596Z,13.43
2019-05-25T16:22:30.465Z,13.64
2019-05-25T16:25:02.849Z,13.78
2019-05-25T16:27:55.484Z,13.88
2019-05-25T16:30:31.085Z,13.96
2019-05-25T16:33:11.605Z,14.10
2019-05-25T16:35:57.764Z,14.16
2019-05-25T16:38:28.658Z,14.30
2019-05-25T16:44:34.327Z,14.18
2019-05-25T16:47:24.164Z,14.18
2019-05-25T16:49:55.655Z,14.21
2019-05-25T16:52:49.229Z,14.23
2019-05-25T16:55:21.957Z,14.30
2019-05-25T16:57:53.149Z,14.34
2019-05-25T17:00:43.041Z,14.44
2019-05-25T17:07:10.610Z,14.57
2019-05-25T17:09:41.929Z,14.73
2019-05-25T17:12:12.923Z,14.72
2019-05-25T17:15:02.914Z,14.45
2019-05-25T17:17:40.903Z,14.32
2019-05-25T17:20:14.619Z,14.33
2019-05-25T17:23:13.171Z,14.34
2019-05-25T17:28:47.112Z,14.15
2019-05-25T17:31:18.600Z,14.17
2019-05-25T17:33:50.045Z,14.15
2019-05-25T17:36:42.400Z,14.15
2019-05-25T17:39:33.363Z,14.22
2019-05-25T17:42:24.395Z,14.27
2019-05-25T17:45:15.043Z,14.25
2019-05-25T17:47:53.381Z,14.31
2019-05-25T17:50:43.156Z,14.39
2019-05-25T17:53:30.949Z,14.43
2019-05-25T17:56:08.875Z,14.45
2019-05-25T17:58:59.462Z,14.45
2019-05-25T18:01:49.968Z,14.34
2019-05-25T18:04:42.101Z,14.37
2019-05-25T18:07:37.845Z,14.38
2019-05-25T18:09:58.058Z,14.38
2019-05-25T18:12:29.610Z,14.37
2019-05-25T18:15:12.073Z,14.38
2019-05-25T18:18:21.747Z,14.38
2019-05-25T18:24:02.926Z,14.39
2019-05-25T18:26:34.272Z,14.32
2019-05-25T18:29:29.239Z,14.24
2019-05-25T18:32:19.528Z,14.20
2019-05-25T18:35:30.247Z,14.14
2019-05-25T18:38:20.719Z,14.04
2019-05-25T18:41:10.958Z,13.16
2019-05-25T18:43:41.951Z,13.88
2019-05-25T18:46:16.236Z,13.84
2019-05-25T18:49:07.883Z,13.72
2019-05-25T18:58:16.050Z,13.51
2019-05-25T19:04:19.835Z,13.32
2019-05-25T19:06:57.281Z,13.23
2019-05-25T19:09:39.158Z,13.15
2019-05-25T19:12:21.243Z,13.05
2019-05-25T19:14:52.656Z,12.96
2019-05-25T19:17:36.525Z,12.89
2019-05-25T19:20:20.667Z,12.83
2019-05-25T19:23:15.219Z,12.29
2019-05-25T19:26:04.841Z,12.76
2019-05-25T19:28:47.347Z,12.69
2019-05-25T19:31:28.988Z,12.59
2019-05-25T19:36:56.925Z,12.48
2019-05-25T19:39:38.341Z,12.43
2019-05-25T19:42:20.301Z,12.34
2019-05-25T19:45:02.751Z,12.34
2019-05-25T19:47:45.226Z,12.29
2019-05-25T19:50:27.234Z,12.26
2019-05-25T19:53:12.256Z,12.17
2019-05-25T19:58:53.519Z,12.08
2019-05-25T20:01:35.001Z,12.04
2019-05-25T20:04:17.624Z,12.00
2019-05-25T20:06:49.476Z,12.01
2019-05-25T20:09:20.694Z,12.02
2019-05-25T20:11:57.800Z,11.99
2019-05-25T20:14:35.329Z,11.94
2019-05-25T20:17:29.796Z,11.92
2019-05-25T20:20:23.870Z,11.80
2019-05-25T20:23:19.644Z,11.85
2019-05-25T20:25:53.341Z,11.86
2019-05-25T20:28:43.888Z,11.85
2019-05-25T20:34:21.126Z,11.89
2019-05-25T20:37:11.436Z,11.90
2019-05-25T20:39:43.381Z,11.85
2019-05-25T20:42:16.896Z,11.76
2019-05-25T20:44:49.375Z,11.71
2019-05-25T20:47:24.580Z,11.71
2019-05-25T20:50:14.731Z,11.65
2019-05-25T20:53:05.079Z,11.66
2019-05-25T20:55:55.542Z,11.62
2019-05-25T20:58:47.936Z,11.57
2019-05-25T21:01:19.418Z,11.56
2019-05-25T21:04:09.147Z,11.53
2019-05-25T21:06:59.815Z,11.52
2019-05-25T21:09:50.399Z,11.50
2019-05-25T21:12:42.734Z,11.52
2019-05-25T21:15:34.493Z,11.55
2019-05-25T21:18:44.444Z,11.55
2019-05-25T21:21:15.662Z,11.55
2019-05-25T21:24:05.812Z,11.55
2019-05-25T21:26:56.216Z,11.53
2019-05-25T21:29:27.654Z,11.49
2019-05-25T21:32:19.409Z,11.45
2019-05-25T21:34:50.748Z,11.45
2019-05-25T21:37:40.462Z,11.42
2019-05-25T21:40:12.803Z,11.45
2019-05-25T21:43:02.628Z,11.40
2019-05-25T21:45:52.480Z,11.41
2019-05-25T21:48:50.162Z,11.40
2019-05-25T21:51:39.889Z,11.45
2019-05-25T21:54:29.894Z,11.46
2019-05-25T21:57:01.747Z,11.51
2019-05-25T21:59:51.452Z,11.50
2019-05-25T22:02:22.362Z,11.47
2019-05-25T22:05:12.153Z,11.51
2019-05-25T22:08:02.033Z,11.53
2019-05-25T22:10:43.947Z,11.63
2019-05-25T22:18:58.279Z,11.57
2019-05-25T22:21:39.075Z,11.54
2019-05-25T22:24:30.324Z,11.44
2019-05-25T22:27:20.922Z,11.37
2019-05-25T22:29:53.881Z,11.39
2019-05-25T22:32:43.721Z,11.40
2019-05-25T22:35:33.527Z,11.35
2019-05-25T22:38:23.180Z,11.27
2019-05-25T22:41:12.826Z,11.17
2019-05-25T22:44:03.189Z,11.12
2019-05-25T22:46:52.829Z,11.11
2019-05-25T22:49:42.972Z,11.14
2019-05-25T22:52:13.905Z,11.16
2019-05-25T22:54:44.693Z,11.14
2019-05-25T22:57:34.399Z,11.11
2019-05-25T23:00:06.669Z,11.09
2019-05-25T23:02:56.693Z,11.03
2019-05-25T23:05:30.447Z,10.99
2019-05-25T23:08:20.087Z,10.95
2019-05-25T23:11:01.008Z,10.93
2019-05-25T23:13:33.384Z,10.93
2019-05-25T23:19:44.599Z,10.87
2019-05-25T23:23:05.424Z,10.91
2019-05-25T23:25:55.893Z,10.96
2019-05-25T23:28:47.518Z,10.90
2019-05-25T23:31:37.385Z,10.81
2019-05-25T23:34:08.540Z,10.74
2019-05-25T23:37:14.064Z,10.66
2019-05-25T23:39:52.969Z,10.63
2019-05-25T23:42:24.756Z,10.54
2019-05-25T23:45:14.817Z,10.48
2019-05-25T23:47:48.051Z,10.43
2019-05-25T23:50:39.881Z,10.41
2019-05-25T23:53:29.769Z,10.40
2019-05-25T23:56:00.482Z,10.39
2019-05-25T23:58:51.397Z,10.36
